Time;durP1;ratioP1;P1;durP2;ratioP2;P2;SDS_P1;SDS_P2;PMS_P1;PMS_P2;Temp;Humidity;BMP_temperature;BMP_pressure;BME280_temperature;BME280_humidity;BME280_pressure;Samples;Min_cycle;Max_cycle;Signal;HPM_P1;HPM_P2
2022/10/30 00:00:55;;;;;;;18.85;9.15;;;15.00;99.90;;;;;;6216547;23;20017;-84
2022/10/30 00:03:21;;;;;;;16.38;8.13;;;14.90;99.90;;;;;;6190305;23;20020;-84
2022/10/30 00:05:49;;;;;;;19.83;8.43;;;14.90;99.90;;;;;;6188492;23;20503;-83
2022/10/30 00:08:16;;;;;;;21.20;8.88;;;14.90;99.90;;;;;;6189800;23;20437;-83
2022/10/30 00:10:43;;;;;;;21.58;8.90;;;14.90;99.90;;;;;;6216789;23;20055;-84
2022/10/30 00:13:09;;;;;;;19.02;8.95;;;14.90;99.90;;;;;;6215526;23;20009;-84
2022/10/30 00:15:36;;;;;;;17.20;8.80;;;14.90;99.90;;;;;;6190081;23;20053;-84
2022/10/30 00:18:01;;;;;;;18.60;8.63;;;14.90;99.90;;;;;;6215822;23;20013;-84
2022/10/30 00:20:27;;;;;;;13.60;7.55;;;14.90;99.90;;;;;;6188701;23;20025;-84
2022/10/30 00:22:53;;;;;;;19.40;8.88;;;14.90;99.90;;;;;;6215567;23;20091;-84
2022/10/30 00:25:19;;;;;;;19.85;8.68;;;14.90;99.90;;;;;;6188737;23;20020;-84
2022/10/30 00:27:44;;;;;;;18.90;9.07;;;14.90;99.90;;;;;;6215101;23;20095;-84
2022/10/30 00:30:10;;;;;;;16.42;8.20;;;14.90;99.90;;;;;;6215742;23;20055;-83
2022/10/30 00:32:36;;;;;;;22.83;9.52;;;14.90;99.90;;;;;;6188099;23;20016;-83
2022/10/30 00:35:03;;;;;;;13.30;7.60;;;14.90;99.90;;;;;;6215521;23;20009;-84
2022/10/30 00:37:28;;;;;;;21.52;9.20;;;14.90;99.90;;;;;;6189012;23;20449;-84
2022/10/30 00:39:54;;;;;;;18.60;8.85;;;14.80;99.90;;;;;;6187737;23;20028;-84
2022/10/30 00:42:19;;;;;;;13.38;7.45;;;14.80;99.90;;;;;;6215603;23;20384;-84
2022/10/30 00:44:51;;;;;;;18.55;8.15;;;14.80;99.90;;;;;;6188303;23;20016;-85
2022/10/30 00:47:36;;;;;;;16.15;7.93;;;14.80;99.90;;;;;;6187512;23;20016;-84
2022/10/30 00:50:07;;;;;;;15.20;8.50;;;14.80;99.90;;;;;;6187569;23;20087;-84
2022/10/30 00:52:36;;;;;;;16.17;8.10;;;14.70;99.90;;;;;;6188217;23;20024;-85
2022/10/30 00:55:06;;;;;;;14.18;7.40;;;14.70;99.90;;;;;;6214210;23;20017;-83
2022/10/30 00:57:34;;;;;;;15.10;8.27;;;14.70;99.90;;;;;;6188094;23;20071;-83
2022/10/30 01:00:00;;;;;;;16.30;7.97;;;14.70;99.90;;;;;;6188188;23;20013;-84
2022/10/30 01:02:26;;;;;;;20.52;8.52;;;14.70;99.90;;;;;;6186231;23;20100;-84
2022/10/30 01:04:53;;;;;;;14.07;7.43;;;14.70;99.90;;;;;;6214094;23;20090;-83
2022/10/30 01:07:19;;;;;;;11.70;7.53;;;14.70;99.90;;;;;;6188154;23;20012;-83
2022/10/30 01:09:46;;;;;;;16.55;8.45;;;14.60;99.90;;;;;;6188079;23;20016;-84
2022/10/30 01:12:13;;;;;;;13.98;7.65;;;14.60;99.90;;;;;;6187544;23;20016;-84
2022/10/30 01:14:50;;;;;;;16.80;7.80;;;14.60;99.90;;;;;;6186981;23;20016;-84
2022/10/30 01:17:35;;;;;;;12.68;7.90;;;14.60;99.90;;;;;;6187963;23;20016;-82
2022/10/30 01:20:10;;;;;;;16.73;8.40;;;14.60;99.90;;;;;;6187675;23;20099;-81
2022/10/30 01:23:01;;;;;;;19.45;9.30;;;14.60;99.90;;;;;;6187826;23;20017;-82
2022/10/30 01:25:30;;;;;;;19.65;8.73;;;14.50;99.90;;;;;;6189193;23;20180;-83
2022/10/30 01:28:18;;;;;;;18.70;8.88;;;14.50;99.90;;;;;;6214559;23;20017;-81
2022/10/30 01:31:02;;;;;;;17.58;8.40;;;14.50;99.90;;;;;;6170197;23;20056;-82
2022/10/30 01:34:06;;;;;;;17.90;8.85;;;14.50;99.90;;;;;;6187741;23;20017;-82
2022/10/30 01:36:37;;;;;;;;;;;14.50;99.90;;;;;;6187377;23;20025;-81
2022/10/30 01:39:11;;;;;;;20.50;9.07;;;14.40;99.90;;;;;;6214331;23;20026;-82
2022/10/30 01:41:36;;;;;;;23.70;8.95;;;14.40;99.90;;;;;;6186996;23;20095;-82
2022/10/30 01:44:08;;;;;;;22.88;9.25;;;14.50;99.90;;;;;;6186471;23;20068;-81
2022/10/30 01:46:51;;;;;;;20.52;8.75;;;14.50;99.90;;;;;;6187640;23;20008;-81
2022/10/30 01:49:38;;;;;;;18.95;8.30;;;14.50;99.90;;;;;;6214225;23;20329;-81
2022/10/30 01:52:44;;;;;;;23.15;9.10;;;14.40;99.90;;;;;;6187097;23;20013;-81
2022/10/30 01:55:36;;;;;;;21.58;9.63;;;14.40;99.90;;;;;;6184398;23;20017;-81
2022/10/30 01:58:13;;;;;;;17.35;9.25;;;14.40;99.90;;;;;;6156589;23;20021;-82
2022/10/30 02:00:42;;;;;;;18.58;8.30;;;14.40;99.90;;;;;;6183901;23;20009;-83
2022/10/30 02:03:08;;;;;;;25.25;9.88;;;14.40;99.90;;;;;;6156598;23;20017;-82
2022/10/30 02:05:47;;;;;;;14.15;7.95;;;14.40;99.90;;;;;;6182665;23;20052;-82
2022/10/30 02:08:13;;;;;;;21.48;9.40;;;14.50;99.90;;;;;;6157550;23;20017;-82
2022/10/30 02:10:41;;;;;;;18.45;9.10;;;14.40;99.90;;;;;;6157187;23;20115;-82
2022/10/30 02:13:07;;;;;;;20.48;8.88;;;14.40;99.90;;;;;;6157003;23;20013;-83
2022/10/30 02:15:33;;;;;;;22.02;9.52;;;14.40;99.90;;;;;;6157887;23;20472;-82
2022/10/30 02:17:59;;;;;;;24.45;9.32;;;14.40;99.90;;;;;;6183897;23;20013;-82
2022/10/30 02:20:25;;;;;;;20.15;8.52;;;14.40;99.90;;;;;;6156925;23;20009;-81
2022/10/30 02:22:51;;;;;;;16.60;8.70;;;14.40;99.90;;;;;;6157568;23;20068;-82
2022/10/30 02:25:16;;;;;;;17.88;8.70;;;14.30;99.90;;;;;;6183274;23;20012;-81
2022/10/30 02:27:42;;;;;;;18.80;8.95;;;14.40;99.90;;;;;;6184336;23;20052;-81
2022/10/30 02:30:08;;;;;;;19.98;8.50;;;14.30;99.90;;;;;;6157616;23;20096;-82
2022/10/30 02:32:34;;;;;;;15.77;7.72;;;14.30;99.90;;;;;;6156543;23;20017;-83
2022/10/30 02:35:00;;;;;;;16.83;7.93;;;14.30;99.90;;;;;;6157246;23;20019;-83
2022/10/30 02:37:26;;;;;;;22.00;9.85;;;14.30;99.90;;;;;;6157417;23;20016;-82
2022/10/30 02:39:52;;;;;;;12.68;7.40;;;14.30;99.90;;;;;;6182654;23;20064;-82
2022/10/30 02:42:18;;;;;;;16.90;8.98;;;14.30;99.90;;;;;;6184476;23;20013;-83
2022/10/30 02:44:44;;;;;;;15.52;8.57;;;14.20;99.90;;;;;;6157383;23;20104;-83
2022/10/30 02:47:09;;;;;;;17.90;7.88;;;14.30;99.90;;;;;;6182877;23;20045;-83
2022/10/30 02:49:36;;;;;;;19.88;9.18;;;14.30;99.90;;;;;;6157486;23;20092;-82
2022/10/30 02:52:02;;;;;;;17.48;8.40;;;14.30;99.90;;;;;;6183310;23;20025;-83
2022/10/30 02:54:27;;;;;;;16.00;8.23;;;14.20;99.90;;;;;;6209775;23;20446;-82
2022/10/30 02:56:53;;;;;;;17.33;7.60;;;14.20;99.90;;;;;;6186569;23;20349;-82
2022/10/30 02:59:19;;;;;;;13.18;7.65;;;14.20;99.90;;;;;;6187281;23;20021;-82
2022/10/30 03:01:45;;;;;;;12.88;7.22;;;14.20;99.90;;;;;;6186568;23;20314;-82
2022/10/30 03:04:10;;;;;;;13.65;7.53;;;14.20;99.90;;;;;;6188477;23;20055;-82
2022/10/30 03:06:36;;;;;;;13.45;7.80;;;14.10;99.90;;;;;;6188634;23;20051;-82
2022/10/30 03:09:02;;;;;;;12.65;7.00;;;14.10;99.90;;;;;;6187382;23;20052;-82
2022/10/30 03:11:27;;;;;;;16.92;8.73;;;14.10;99.90;;;;;;6215305;23;20013;-82
2022/10/30 03:13:53;;;;;;;16.45;8.70;;;14.10;99.90;;;;;;6216192;23;20376;-82
2022/10/30 03:16:22;;;;;;;18.40;9.90;;;14.10;99.90;;;;;;6189256;23;20448;-82
2022/10/30 03:18:48;;;;;;;15.55;7.95;;;14.10;99.90;;;;;;6216920;23;20020;-82
2022/10/30 03:21:18;;;;;;;14.18;7.95;;;14.10;99.90;;;;;;6215836;23;20493;-82
2022/10/30 03:23:45;;;;;;;21.08;8.85;;;14.00;99.90;;;;;;6189573;23;20009;-82
2022/10/30 03:26:11;;;;;;;17.75;9.10;;;14.00;99.90;;;;;;6189824;23;20024;-82
2022/10/30 03:28:36;;;;;;;16.30;8.95;;;14.00;99.90;;;;;;6215909;23;20012;-82
2022/10/30 03:31:11;;;;;;;19.52;8.48;;;14.00;99.90;;;;;;6190199;23;20489;-82
2022/10/30 03:33:37;;;;;;;14.10;7.40;;;14.00;99.90;;;;;;6216516;23;20048;-82
2022/10/30 03:36:07;;;;;;;20.35;8.40;;;14.00;99.90;;;;;;6215638;23;20055;-82
2022/10/30 03:38:33;;;;;;;20.60;9.10;;;14.00;99.90;;;;;;6217176;23;20068;-82
2022/10/30 03:41:00;;;;;;;18.02;8.60;;;14.00;99.90;;;;;;6216519;23;20017;-82
2022/10/30 03:43:26;;;;;;;15.95;8.10;;;14.00;99.90;;;;;;6188876;23;20140;-82
2022/10/30 03:45:53;;;;;;;13.65;7.32;;;14.00;99.90;;;;;;6216634;23;20020;-82
2022/10/30 03:48:21;;;;;;;16.20;8.55;;;13.90;99.90;;;;;;6216739;23;20017;-82
2022/10/30 03:50:47;;;;;;;17.15;8.75;;;13.90;99.90;;;;;;6215633;23;20027;-82
2022/10/30 03:53:13;;;;;;;12.73;6.95;;;13.90;99.90;;;;;;6190213;23;20392;-82
2022/10/30 03:55:40;;;;;;;11.63;6.70;;;13.90;99.90;;;;;;6216696;23;20020;-82
2022/10/30 03:58:06;;;;;;;18.20;8.13;;;13.90;99.90;;;;;;6215760;23;20032;-82
2022/10/30 04:00:33;;;;;;;13.15;7.10;;;13.90;99.90;;;;;;6190221;23;20100;-82
2022/10/30 04:02:59;;;;;;;13.20;7.32;;;13.90;99.90;;;;;;6189431;23;20021;-82
2022/10/30 04:05:26;;;;;;;14.00;6.28;;;13.90;99.90;;;;;;6189466;23;20588;-82
2022/10/30 04:07:56;;;;;;;12.27;6.78;;;13.80;99.90;;;;;;6216445;23;20020;-82
2022/10/30 04:10:22;;;;;;;13.02;7.28;;;13.80;99.90;;;;;;6189064;23;20024;-83
2022/10/30 04:12:47;;;;;;;11.85;6.80;;;13.80;99.90;;;;;;6216037;23;20016;-83
2022/10/30 04:15:13;;;;;;;14.00;7.00;;;13.80;99.90;;;;;;6189863;23;20017;-83
2022/10/30 04:17:38;;;;;;;12.93;7.35;;;13.70;99.90;;;;;;6188739;23;20020;-83
2022/10/30 04:20:05;;;;;;;12.13;6.88;;;13.80;99.90;;;;;;6216282;23;20051;-82
2022/10/30 04:22:30;;;;;;;11.52;7.55;;;13.80;99.90;;;;;;6190094;23;20020;-83
2022/10/30 04:24:56;;;;;;;12.40;7.30;;;13.70;99.90;;;;;;6215332;23;20023;-83
2022/10/30 04:27:22;;;;;;;15.77;7.15;;;13.70;99.90;;;;;;6189590;23;20350;-83
2022/10/30 04:29:47;;;;;;;13.25;7.38;;;13.70;99.90;;;;;;6216325;23;20015;-83
2022/10/30 04:32:13;;;;;;;12.40;7.60;;;13.70;99.90;;;;;;6188479;23;20519;-83
2022/10/30 04:34:39;;;;;;;13.25;7.00;;;13.70;99.90;;;;;;6216826;23;20012;-83
2022/10/30 04:37:06;;;;;;;10.05;7.10;;;13.70;99.90;;;;;;6188967;23;20023;-83
2022/10/30 04:39:31;;;;;;;14.13;7.90;;;13.60;99.90;;;;;;6188740;23;20091;-83
2022/10/30 04:41:57;;;;;;;13.10;7.47;;;13.60;99.90;;;;;;6189326;23;20535;-83
2022/10/30 04:44:22;;;;;;;15.82;7.95;;;13.70;99.90;;;;;;6189172;23;20024;-83
2022/10/30 04:46:48;;;;;;;14.27;7.68;;;13.60;99.90;;;;;;6188204;23;20017;-83
2022/10/30 04:49:14;;;;;;;12.40;7.70;;;13.60;99.90;;;;;;6189812;23;20020;-83
2022/10/30 04:51:39;;;;;;;14.63;7.82;;;13.60;99.90;;;;;;6216143;23;20040;-83
2022/10/30 04:54:05;;;;;;;12.07;7.57;;;13.50;99.90;;;;;;6187755;23;20066;-83
2022/10/30 04:56:31;;;;;;;13.10;7.45;;;13.50;99.90;;;;;;6189420;23;20464;-83
2022/10/30 04:58:57;;;;;;;11.38;7.18;;;13.50;99.90;;;;;;6189683;23;20013;-83
2022/10/30 05:01:23;;;;;;;11.75;7.03;;;13.50;99.90;;;;;;6188541;23;20051;-83
2022/10/30 05:03:49;;;;;;;16.25;7.85;;;13.50;99.90;;;;;;6188695;23;20012;-82
2022/10/30 05:06:19;;;;;;;11.45;7.20;;;13.50;99.90;;;;;;6189525;23;20029;-82
2022/10/30 05:08:44;;;;;;;11.02;7.25;;;13.40;99.90;;;;;;6188006;23;20433;-83
2022/10/30 05:11:10;;;;;;;12.23;7.47;;;13.40;99.90;;;;;;6188981;23;20028;-83
2022/10/30 05:13:35;;;;;;;21.17;9.27;;;13.40;99.90;;;;;;6187716;23;20017;-83
2022/10/30 05:16:01;;;;;;;12.57;7.65;;;13.40;99.90;;;;;;6215535;23;20388;-83
2022/10/30 05:18:27;;;;;;;11.63;6.88;;;13.40;99.90;;;;;;6189142;23;20008;-83
2022/10/30 05:20:52;;;;;;;15.13;7.05;;;13.40;99.90;;;;;;6214991;23;20071;-83
2022/10/30 05:23:18;;;;;;;12.93;6.95;;;13.40;99.90;;;;;;6215273;23;20016;-83
2022/10/30 05:25:43;;;;;;;17.50;9.27;;;13.30;99.90;;;;;;6188987;23;20112;-83
2022/10/30 05:28:09;;;;;;;12.38;6.47;;;13.30;99.90;;;;;;6188155;23;20009;-83
2022/10/30 05:30:35;;;;;;;13.85;6.70;;;13.40;99.90;;;;;;6215455;23;20024;-83
2022/10/30 05:33:03;;;;;;;14.05;7.43;;;13.30;99.90;;;;;;6188533;23;20023;-82
2022/10/30 05:35:31;;;;;;;11.35;6.75;;;13.30;99.90;;;;;;6188184;23;20020;-83
2022/10/30 05:37:57;;;;;;;15.27;8.27;;;13.30;99.90;;;;;;6188487;23;20333;-83
2022/10/30 05:40:23;;;;;;;20.30;7.45;;;13.30;99.90;;;;;;6188934;23;20012;-83
2022/10/30 05:42:49;;;;;;;11.20;6.45;;;13.30;99.90;;;;;;6214755;23;20095;-83
2022/10/30 05:45:16;;;;;;;11.13;7.00;;;13.30;99.90;;;;;;6189348;23;20013;-83
2022/10/30 05:47:42;;;;;;;12.15;6.78;;;13.30;99.90;;;;;;6188862;23;20016;-83
2022/10/30 05:50:09;;;;;;;11.63;6.13;;;13.20;99.90;;;;;;6214886;23;20088;-84
2022/10/30 05:52:34;;;;;;;11.93;6.55;;;13.20;99.90;;;;;;6188058;23;20017;-83
2022/10/30 05:55:00;;;;;;;11.35;6.68;;;13.20;99.90;;;;;;6214716;23;20059;-83
2022/10/30 05:57:31;;;;;;;10.00;6.28;;;13.20;99.90;;;;;;6186101;23;20475;-82
2022/10/30 05:59:57;;;;;;;11.27;6.57;;;13.20;99.90;;;;;;6187251;23;20056;-83
2022/10/30 06:02:23;;;;;;;12.90;6.85;;;13.20;99.90;;;;;;6187865;23;20333;-83
2022/10/30 06:04:48;;;;;;;12.43;7.22;;;13.20;99.90;;;;;;6187550;23;20009;-83
2022/10/30 06:07:14;;;;;;;9.88;6.40;;;13.10;99.90;;;;;;6215216;23;20083;-83
2022/10/30 06:09:39;;;;;;;10.50;6.63;;;13.10;99.90;;;;;;6214549;23;20019;-83
2022/10/30 06:12:05;;;;;;;11.02;6.70;;;13.20;99.90;;;;;;6212368;23;20337;-83
2022/10/30 06:14:31;;;;;;;10.73;6.47;;;13.20;99.90;;;;;;6187430;23;20060;-83
2022/10/30 06:16:57;;;;;;;12.02;7.15;;;13.10;99.90;;;;;;6212597;23;20074;-83
2022/10/30 06:19:22;;;;;;;9.98;6.47;;;13.10;99.90;;;;;;6187202;23;20360;-83
2022/10/30 06:21:48;;;;;;;12.07;6.90;;;13.10;99.90;;;;;;6187322;23;20016;-83
2022/10/30 06:24:14;;;;;;;12.82;6.90;;;13.10;99.90;;;;;;6186551;23;20017;-83
2022/10/30 06:26:40;;;;;;;11.85;6.28;;;13.10;99.90;;;;;;6214175;23;20052;-83
2022/10/30 06:29:06;;;;;;;11.93;6.70;;;13.10;99.90;;;;;;6187394;23;20024;-83
2022/10/30 06:31:31;;;;;;;9.77;6.45;;;13.00;99.90;;;;;;6186647;23;20104;-82
2022/10/30 06:33:57;;;;;;;11.75;6.32;;;13.00;99.90;;;;;;6187026;23;20016;-83
2022/10/30 06:36:22;;;;;;;11.18;6.72;;;13.00;99.90;;;;;;6187518;23;20013;-83
2022/10/30 06:38:48;;;;;;;9.45;6.63;;;13.00;99.90;;;;;;6212536;23;20050;-83
2022/10/30 06:41:14;;;;;;;13.18;7.13;;;13.00;99.90;;;;;;6214282;23;20019;-83
2022/10/30 06:43:39;;;;;;;11.73;6.78;;;13.00;99.90;;;;;;6187798;23;20071;-83
2022/10/30 06:46:05;;;;;;;13.45;6.85;;;13.00;99.90;;;;;;6214032;23;20782;-82
2022/10/30 06:48:30;;;;;;;11.77;6.80;;;13.00;99.90;;;;;;6215410;23;20016;-82
2022/10/30 06:50:58;;;;;;;10.70;6.78;;;12.90;99.90;;;;;;6214341;23;20023;-83
2022/10/30 06:53:24;;;;;;;11.50;6.63;;;12.90;99.90;;;;;;6214360;23;20013;-82
2022/10/30 06:55:58;;;;;;;12.77;6.30;;;12.90;99.90;;;;;;6188608;23;20021;-84
2022/10/30 06:58:25;;;;;;;11.43;6.72;;;12.90;99.90;;;;;;6214091;23;20009;-84
2022/10/30 07:00:51;;;;;;;10.98;6.40;;;12.90;99.90;;;;;;6214237;23;20020;-85
2022/10/30 07:03:17;;;;;;;11.68;6.63;;;12.90;99.90;;;;;;6215333;23;20015;-83
2022/10/30 07:05:42;;;;;;;11.10;7.07;;;12.80;99.90;;;;;;6188877;23;20025;-86
2022/10/30 07:08:08;;;;;;;10.63;6.90;;;12.80;99.90;;;;;;6187109;23;20012;-84
2022/10/30 07:10:34;;;;;;;12.98;7.82;;;12.80;99.90;;;;;;6214679;23;20048;-86
2022/10/30 07:12:59;;;;;;;10.32;6.57;;;12.80;99.90;;;;;;6188307;23;20017;-85
2022/10/30 07:15:26;;;;;;;19.85;8.82;;;12.80;99.90;;;;;;6187351;23;20023;-84
2022/10/30 07:18:01;;;;;;;17.48;8.82;;;12.80;99.90;;;;;;6188143;23;20087;-85
2022/10/30 07:20:29;;;;;;;16.63;8.30;;;12.90;99.90;;;;;;6193393;23;20009;-95
2022/10/30 07:22:54;;;;;;;16.58;8.82;;;12.80;99.90;;;;;;6205641;23;20336;-96
2022/10/30 07:25:20;;;;;;;21.15;10.10;;;12.80;99.90;;;;;;6230269;23;20021;-96
2022/10/30 07:27:48;;;;;;;13.40;7.35;;;12.80;99.90;;;;;;6232028;23;20056;-96
2022/10/30 07:30:15;;;;;;;10.75;6.70;;;12.90;99.90;;;;;;6202205;23;20036;-88
2022/10/30 07:32:41;;;;;;;19.40;8.73;;;12.80;99.90;;;;;;6188207;23;20056;-83
2022/10/30 07:35:08;;;;;;;17.38;9.15;;;12.80;99.90;;;;;;6187193;23;20024;-85
2022/10/30 07:37:34;;;;;;;12.63;7.65;;;12.90;99.90;;;;;;6215610;23;20017;-85
2022/10/30 07:40:00;;;;;;;11.95;7.68;;;12.90;99.90;;;;;;6187626;23;20012;-84
2022/10/30 07:42:26;;;;;;;18.63;9.00;;;12.90;99.90;;;;;;6187700;23;20017;-85
2022/10/30 07:44:51;;;;;;;15.93;8.75;;;12.90;99.90;;;;;;6214643;23;20495;-84
2022/10/30 07:47:17;;;;;;;15.32;8.50;;;12.90;99.90;;;;;;6188061;23;20020;-84
2022/10/30 07:49:42;;;;;;;13.40;7.82;;;12.90;99.90;;;;;;6214065;23;20023;-85
2022/10/30 07:52:08;;;;;;;20.38;10.65;;;13.00;99.90;;;;;;6215076;23;20071;-85
2022/10/30 07:54:33;;;;;;;25.13;11.00;;;13.00;99.90;;;;;;6188174;23;20052;-84
2022/10/30 07:56:59;;;;;;;11.30;7.15;;;13.00;99.90;;;;;;6187083;23;20105;-85
2022/10/30 07:59:25;;;;;;;13.57;8.52;;;13.00;99.90;;;;;;6188247;23;20021;-85
2022/10/30 08:01:50;;;;;;;23.20;12.95;;;13.10;99.90;;;;;;6189846;23;20504;-85
2022/10/30 08:04:16;;;;;;;24.83;11.98;;;13.10;99.90;;;;;;6188997;23;20333;-84
2022/10/30 08:06:42;;;;;;;23.55;11.30;;;13.10;99.90;;;;;;6190014;23;20017;-84
2022/10/30 08:09:08;;;;;;;23.63;12.23;;;13.10;99.90;;;;;;6190290;23;20020;-84
2022/10/30 08:11:34;;;;;;;30.55;15.48;;;13.20;99.90;;;;;;6189165;23;20017;-84
2022/10/30 08:13:59;;;;;;;26.70;12.93;;;13.30;99.90;;;;;;6216728;23;20019;-84
2022/10/30 08:16:25;;;;;;;24.58;13.05;;;13.30;99.90;;;;;;6189020;23;20525;-85
2022/10/30 08:18:50;;;;;;;27.60;13.68;;;13.40;99.90;;;;;;6189499;23;20063;-86
2022/10/30 08:21:16;;;;;;;30.90;14.43;;;13.40;99.90;;;;;;6215660;23;20432;-86
2022/10/30 08:23:41;;;;;;;25.73;12.75;;;13.50;99.90;;;;;;6189269;23;20016;-85
2022/10/30 08:26:07;;;;;;;25.20;12.68;;;13.60;99.90;;;;;;6189770;23;20024;-86
2022/10/30 08:28:33;;;;;;;25.73;13.38;;;13.60;99.90;;;;;;6189890;23;20015;-86
2022/10/30 08:30:59;;;;;;;30.58;13.93;;;13.70;99.90;;;;;;6188553;23;20044;-86
2022/10/30 08:33:25;;;;;;;27.33;13.68;;;13.70;99.90;;;;;;6190249;23;20016;-86
2022/10/30 08:35:53;;;;;;;27.50;14.27;;;13.80;99.90;;;;;;6189541;23;20008;-85
2022/10/30 08:38:19;;;;;;;26.33;14.43;;;13.80;99.90;;;;;;6215689;23;20044;-86
2022/10/30 08:40:44;;;;;;;28.42;13.85;;;13.80;99.90;;;;;;6189800;23;20322;-86
2022/10/30 08:43:10;;;;;;;23.50;11.75;;;13.90;99.90;;;;;;6189033;23;20020;-85
2022/10/30 08:45:36;;;;;;;28.30;14.18;;;14.00;99.90;;;;;;6216018;23;20021;-86
2022/10/30 08:48:04;;;;;;;29.95;14.70;;;14.00;99.90;;;;;;6216082;23;20368;-86
2022/10/30 08:50:31;;;;;;;26.25;14.20;;;14.10;99.90;;;;;;6216250;23;20012;-86
2022/10/30 08:53:00;;;;;;;26.33;13.95;;;14.20;99.90;;;;;;6214323;23;20044;-84
2022/10/30 08:55:26;;;;;;;24.25;12.23;;;14.20;99.90;;;;;;6189540;23;20468;-85
2022/10/30 08:57:51;;;;;;;25.58;13.18;;;14.30;99.90;;;;;;6189371;23;20021;-85
2022/10/30 09:00:17;;;;;;;23.27;14.35;;;14.30;99.90;;;;;;6188748;23;20095;-84
2022/10/30 09:02:44;;;;;;;28.42;13.68;;;14.40;99.90;;;;;;6187362;23;20016;-84
2022/10/30 09:05:09;;;;;;;28.35;13.80;;;14.40;99.90;;;;;;6188132;23;20453;-85
2022/10/30 09:07:35;;;;;;;22.20;12.80;;;14.50;99.90;;;;;;6187596;23;20059;-84
2022/10/30 09:10:01;;;;;;;26.65;12.90;;;14.60;99.90;;;;;;6187786;23;20079;-84
2022/10/30 09:12:27;;;;;;;24.00;11.32;;;14.70;99.90;;;;;;6187717;23;20017;-84
2022/10/30 09:14:53;;;;;;;27.58;13.27;;;14.70;99.90;;;;;;6186739;23;20016;-84
2022/10/30 09:17:18;;;;;;;19.30;10.13;;;14.70;99.90;;;;;;6214447;23;20023;-84
2022/10/30 09:19:44;;;;;;;24.48;12.88;;;14.80;99.90;;;;;;6187999;23;20044;-85
2022/10/30 09:22:10;;;;;;;30.13;13.68;;;14.80;99.90;;;;;;6215999;23;20016;-84
2022/10/30 09:24:36;;;;;;;26.58;14.18;;;14.90;99.90;;;;;;6215952;23;20016;-84
2022/10/30 09:27:01;;;;;;;23.40;13.50;;;14.90;99.90;;;;;;6188060;23;20023;-84
2022/10/30 09:29:29;;;;;;;26.80;14.70;;;14.90;99.90;;;;;;6189687;23;20013;-84
2022/10/30 09:31:55;;;;;;;26.63;13.80;;;15.00;99.90;;;;;;6188451;23;20437;-83
2022/10/30 09:34:21;;;;;;;27.23;13.68;;;15.10;99.90;;;;;;6188163;23;20020;-83
2022/10/30 09:36:48;;;;;;;25.45;13.65;;;15.20;99.90;;;;;;6215497;23;20075;-84
2022/10/30 09:39:14;;;;;;;22.85;12.35;;;15.20;99.90;;;;;;6188950;23;20016;-84
2022/10/30 09:42:13;;;;;;;26.63;13.70;;;15.30;99.90;;;;;;6187465;23;20326;-84
2022/10/30 09:44:50;;;;;;;22.95;12.93;;;15.40;99.90;;;;;;6216211;23;20013;-82
2022/10/30 09:47:21;;;;;;;26.33;13.65;;;15.40;99.90;;;;;;6188919;23;20016;-82
2022/10/30 09:50:02;;;;;;;23.17;13.43;;;15.50;99.90;;;;;;6187979;23;20092;-83
2022/10/30 09:52:54;;;;;;;27.35;13.52;;;15.60;99.90;;;;;;6215112;23;20100;-87
2022/10/30 09:55:38;;;;;;;31.60;13.73;;;15.70;99.90;;;;;;6214968;23;20016;-86
2022/10/30 09:58:23;;;;;;;26.80;12.63;;;15.80;99.90;;;;;;6187552;23;20027;-87
2022/10/30 10:01:04;;;;;;;25.80;12.40;;;15.90;99.90;;;;;;6215148;23;20024;-86
2022/10/30 10:03:48;;;;;;;28.45;12.80;;;16.00;99.90;;;;;;6215260;23;20059;-86
2022/10/30 10:06:19;;;;;;;27.63;12.88;;;16.00;99.90;;;;;;6187629;23;20408;-86
2022/10/30 10:09:22;;;;;;;21.70;12.40;;;16.20;99.90;;;;;;6187852;23;20023;-84
2022/10/30 10:12:14;;;;;;;25.83;12.25;;;16.30;99.90;;;;;;6184106;23;20091;-86
2022/10/30 10:14:45;;;;;;;29.67;12.95;;;16.40;99.90;;;;;;6176427;23;20048;-85
2022/10/30 10:17:17;;;;;;;22.35;12.95;;;16.40;99.90;;;;;;6187458;23;20021;-86
2022/10/30 10:19:58;;;;;;;25.27;12.65;;;16.50;99.90;;;;;;6188140;23;20009;-87
2022/10/30 10:22:44;;;;;;;25.48;12.65;;;16.60;99.90;;;;;;6215172;23;20079;-86
2022/10/30 10:25:14;;;;;;;28.33;12.32;;;16.70;99.90;;;;;;6187247;23;20449;-85
2022/10/30 10:28:05;;;;;;;22.10;12.70;;;16.70;99.90;;;;;;6188561;23;20382;-86
2022/10/30 10:31:23;;;;;;;24.65;12.50;;;16.90;99.90;;;;;;6214067;23;20048;-85
2022/10/30 10:34:04;;;;;;;25.17;12.20;;;16.90;99.90;;;;;;6154273;23;20318;-86
2022/10/30 10:36:55;;;;;;;23.45;12.10;;;17.00;99.90;;;;;;6214816;23;20016;-87
2022/10/30 10:39:32;;;;;;;23.10;11.10;;;17.00;99.90;;;;;;6177925;23;20020;-88
2022/10/30 10:42:01;;;;;;;22.92;10.93;;;17.10;99.90;;;;;;6188588;23;20016;-85
2022/10/30 10:44:48;;;;;;;22.70;11.13;;;17.10;99.90;;;;;;6187588;23;20023;-83
2022/10/30 10:47:47;;;;;;;21.33;9.88;;;17.20;99.90;;;;;;6188722;23;20017;-83
2022/10/30 10:50:27;;;;;;;21.70;10.77;;;17.30;99.90;;;;;;6188828;23;20020;-83
2022/10/30 10:53:17;;;;;;;21.00;9.43;;;17.40;99.90;;;;;;6187004;23;20024;-84
2022/10/30 10:55:45;;;;;;;19.38;9.02;;;17.50;99.90;;;;;;6188682;23;20109;-84
2022/10/30 10:58:35;;;;;;;23.15;9.23;;;17.50;99.90;;;;;;6188110;23;20092;-84
2022/10/30 11:01:01;;;;;;;23.48;9.40;;;17.60;99.90;;;;;;6214092;23;20040;-84
2022/10/30 11:03:48;;;;;;;22.63;9.20;;;17.70;99.90;;;;;;6188200;23;20092;-84
2022/10/30 11:06:25;;;;;;;20.10;9.23;;;17.80;99.90;;;;;;6188045;23;20017;-84
2022/10/30 11:09:00;;;;;;;24.05;9.60;;;17.90;99.90;;;;;;6215304;23;20040;-83
2022/10/30 11:11:26;;;;;;;21.38;8.90;;;18.00;99.90;;;;;;6195026;23;20020;-84
2022/10/30 11:14:01;;;;;;;19.13;9.25;;;18.10;99.90;;;;;;6216772;23;20332;-84
2022/10/30 11:16:30;;;;;;;20.70;9.35;;;18.10;99.90;;;;;;6218752;23;20043;-85
2022/10/30 11:19:02;;;;;;;18.00;8.50;;;18.20;99.90;;;;;;6218072;23;20031;-85
2022/10/30 11:21:31;;;;;;;19.85;8.68;;;18.20;99.90;;;;;;6217282;23;20099;-84
2022/10/30 11:23:57;;;;;;;18.60;7.93;;;18.30;99.90;;;;;;6217737;23;20034;-85
2022/10/30 11:26:27;;;;;;;15.90;7.85;;;18.40;99.90;;;;;;6245076;23;20492;-84
2022/10/30 11:28:58;;;;;;;21.33;8.82;;;18.50;99.90;;;;;;6244924;23;20463;-84
2022/10/30 11:31:39;;;;;;;19.33;7.30;;;18.50;99.90;;;;;;6244668;23;20021;-85
2022/10/30 11:34:29;;;;;;;23.77;8.25;;;18.60;99.90;;;;;;6219225;23;20008;-84
2022/10/30 11:36:55;;;;;;;18.10;7.32;;;18.70;99.70;;;;;;6222437;23;20016;-84
2022/10/30 11:39:25;;;;;;;17.85;8.15;;;18.70;99.60;;;;;;6221018;23;20023;-85
2022/10/30 11:42:13;;;;;;;21.70;7.60;;;18.80;99.50;;;;;;6247091;23;20023;-84
2022/10/30 11:44:44;;;;;;;20.00;8.02;;;18.90;99.30;;;;;;6248371;23;20452;-84
2022/10/30 11:47:14;;;;;;;24.33;8.00;;;18.90;99.30;;;;;;6222442;23;20009;-85
2022/10/30 11:49:51;;;;;;;19.95;8.02;;;19.00;99.00;;;;;;6221528;23;20040;-85
2022/10/30 11:52:20;;;;;;;18.40;7.75;;;19.00;99.00;;;;;;6249531;23;20429;-86
2022/10/30 11:54:51;;;;;;;18.08;8.88;;;19.10;99.10;;;;;;6220099;23;20012;-85
2022/10/30 11:57:33;;;;;;;19.38;8.57;;;19.20;99.10;;;;;;6248853;23;20012;-85
2022/10/30 12:00:00;;;;;;;18.00;7.97;;;19.20;98.50;;;;;;6221129;23;20016;-85
2022/10/30 12:02:28;;;;;;;20.98;8.13;;;19.20;98.70;;;;;;6219211;23;20023;-85
2022/10/30 12:04:59;;;;;;;17.67;7.72;;;19.30;98.30;;;;;;6221782;23;20094;-86
2022/10/30 12:07:29;;;;;;;20.55;8.07;;;19.30;98.10;;;;;;6219942;23;20021;-84
2022/10/30 12:09:58;;;;;;;17.48;8.13;;;19.30;97.80;;;;;;6217807;23;20016;-86
2022/10/30 12:12:40;;;;;;;16.45;8.45;;;19.40;98.20;;;;;;6245151;23;20107;-85
2022/10/30 12:15:18;;;;;;;24.40;9.30;;;19.40;98.00;;;;;;6218661;23;20024;-86
2022/10/30 12:17:59;;;;;;;17.77;8.73;;;19.40;98.20;;;;;;6217931;23;20024;-86
2022/10/30 12:20:25;;;;;;;24.33;8.63;;;19.50;98.30;;;;;;6218894;23;20012;-85
2022/10/30 12:22:51;;;;;;;20.52;8.02;;;19.50;98.50;;;;;;6244747;23;20795;-85
2022/10/30 12:25:28;;;;;;;21.83;8.93;;;19.50;98.40;;;;;;6245648;23;20026;-85
2022/10/30 12:28:19;;;;;;;16.00;8.75;;;19.60;98.40;;;;;;6246409;23;20027;-85
2022/10/30 12:31:08;;;;;;;19.50;9.18;;;19.50;98.40;;;;;;6218044;23;20020;-86
2022/10/30 12:33:58;;;;;;;19.08;9.02;;;19.50;97.80;;;;;;6218955;23;20016;-86
2022/10/30 12:36:32;;;;;;;19.77;9.75;;;19.50;97.80;;;;;;6219155;23;20024;-85
2022/10/30 12:39:08;;;;;;;20.10;9.90;;;19.50;97.80;;;;;;6217645;23;20456;-85
2022/10/30 12:42:13;;;;;;;22.52;10.23;;;19.50;98.20;;;;;;6246530;23;20020;-86
2022/10/30 12:44:46;;;;;;;23.20;9.93;;;19.50;98.10;;;;;;6218032;23;20012;-85
2022/10/30 12:47:25;;;;;;;20.85;10.07;;;19.50;98.30;;;;;;6218564;23;20005;-85
2022/10/30 12:49:56;;;;;;;19.42;10.10;;;19.50;98.50;;;;;;6218439;23;20044;-85